Time;durP1;ratioP1;P1;durP2;ratioP2;P2;SDS_P1;SDS_P2;PMS_P1;PMS_P2;Temp;Humidity;BMP_temperature;BMP_pressure;BME280_temperature;BME280_humidity;BME280_pressure;Samples;Min_cycle;Max_cycle;Signal;HPM_P1;HPM_P2
2021/05/30 00:05:46;;;;;;;6.80;3.90;;;;;;;10.46;100.00;101059.91;712225;1202;115109;-79
2021/05/30 00:21:07;;;;;;;7.50;3.50;;;;;;;10.38;100.00;101066.70;712329;1206;114106;-78
2021/05/30 00:36:27;;;;;;;4.90;2.93;;;;;;;10.40;100.00;101068.26;712183;1202;115528;-78
2021/05/30 00:51:48;;;;;;;5.25;2.65;;;;;;;10.48;100.00;101068.51;712860;1179;113571;-81
2021/05/30 01:07:09;;;;;;;5.00;2.93;;;;;;;10.48;100.00;101059.81;719123;1206;115016;-80
2021/05/30 01:22:34;;;;;;;8.50;4.27;;;;;;;10.49;100.00;101058.84;712539;1202;114559;-80
2021/05/30 01:37:55;;;;;;;5.87;3.00;;;;;;;10.46;100.00;101069.58;712397;1203;115123;-80
2021/05/30 01:53:18;;;;;;;4.27;3.33;;;;;;;10.37;100.00;101076.34;712360;1202;114311;-78
2021/05/30 02:08:39;;;;;;;3.70;2.57;;;;;;;10.25;100.00;101087.72;712469;1206;115853;-78
2021/05/30 02:24:00;;;;;;;4.83;3.00;;;;;;;10.24;100.00;101091.28;712367;1202;114237;-78
2021/05/30 02:39:20;;;;;;;5.43;3.48;;;;;;;10.31;100.00;101095.14;712325;1202;115446;-79
2021/05/30 02:54:40;;;;;;;5.65;2.83;;;;;;;10.35;100.00;101088.74;712291;1202;114419;-78
2021/05/30 03:10:01;;;;;;;9.35;3.80;;;;;;;10.48;100.00;101099.98;712360;1202;114918;-78
2021/05/30 03:25:21;;;;;;;7.47;4.20;;;;;;;10.58;100.00;101096.67;712463;1202;115415;-78
2021/05/30 03:40:51;;;;;;;5.40;3.50;;;;;;;10.51;100.00;101088.44;712302;1203;114445;-78
2021/05/30 03:56:11;;;;;;;6.20;4.18;;;;;;;10.57;100.00;101102.87;712497;1179;114493;-78
2021/05/30 04:11:32;;;;;;;7.10;5.10;;;;;;;10.79;100.00;101108.16;712503;1202;114367;-78
2021/05/30 04:26:52;;;;;;;10.50;5.55;;;;;;;11.46;100.00;101110.95;712715;1202;115550;-78
2021/05/30 04:42:13;;;;;;;12.15;5.90;;;;;;;11.79;100.00;101117.95;712493;1177;115675;-77
2021/05/30 04:57:34;;;;;;;8.03;5.37;;;;;;;11.95;100.00;101108.86;712417;1202;114307;-77
2021/05/30 05:12:54;;;;;;;11.55;5.50;;;;;;;12.30;100.00;101120.95;715907;1168;115366;-78
2021/05/30 05:28:15;;;;;;;8.15;4.98;;;;;;;12.44;100.00;101131.14;713919;1206;115520;-78
2021/05/30 05:43:35;;;;;;;9.35;5.50;;;;;;;12.86;100.00;101132.14;713858;1202;115072;-77
2021/05/30 05:58:55;;;;;;;11.15;5.35;;;;;;;13.45;100.00;101134.11;713878;1206;114584;-78
2021/05/30 06:14:15;;;;;;;12.10;5.80;;;;;;;13.87;100.00;101141.03;713993;1206;114380;-78
2021/05/30 06:29:36;;;;;;;6.83;4.05;;;;;;;14.23;100.00;101154.53;714022;1203;114923;-77
2021/05/30 06:44:57;;;;;;;6.75;4.13;;;;;;;14.81;100.00;101161.62;713977;1202;115300;-77
2021/05/30 07:00:18;;;;;;;6.68;3.88;;;;;;;15.25;100.00;101162.91;714155;1203;114552;-78
2021/05/30 07:15:40;;;;;;;7.53;4.58;;;;;;;16.10;99.95;101157.47;714073;1179;114134;-78
2021/05/30 07:31:01;;;;;;;6.33;3.87;;;;;;;17.10;96.09;101174.05;716600;1202;113458;-80
2021/05/30 07:46:22;;;;;;;6.83;3.70;;;;;;;17.96;92.47;101174.08;714699;1203;115452;-78
2021/05/30 08:01:43;;;;;;;9.60;4.38;;;;;;;18.79;87.81;101181.14;714067;1206;115184;-79
2021/05/30 08:17:05;;;;;;;11.87;7.00;;;;;;;19.48;79.97;101192.30;713749;1203;114113;-77
2021/05/30 08:32:26;;;;;;;5.45;3.20;;;;;;;19.90;76.45;101191.14;714488;1205;114208;-75
2021/05/30 08:47:47;;;;;;;6.95;3.78;;;;;;;20.08;74.94;101188.22;714022;1202;114427;-77
2021/05/30 09:03:11;;;;;;;5.45;3.53;;;;;;;19.24;72.98;101188.72;714409;1203;115268;-77
2021/05/30 09:18:33;;;;;;;8.90;5.30;;;;;;;19.08;70.88;101194.91;713983;1203;115262;-78
2021/05/30 09:33:54;;;;;;;4.88;3.28;;;;;;;20.37;70.34;101187.52;715875;1202;114081;-77
2021/05/30 09:49:15;;;;;;;5.67;3.77;;;;;;;20.85;68.29;101178.48;714523;1177;115230;-77
2021/05/30 10:04:36;;;;;;;6.38;2.70;;;;;;;22.50;66.22;101182.60;717149;1202;115266;-76
2021/05/30 10:20:00;;;;;;;4.90;3.50;;;;;;;20.13;64.30;101187.71;715741;1202;113889;-77
2021/05/30 10:35:23;;;;;;;4.60;2.60;;;;;;;21.55;64.57;101197.77;714757;1190;114459;-77
2021/05/30 10:51:09;;;;;;;2.90;2.53;;;;;;;23.15;62.10;101190.50;714115;1203;115165;-78
2021/05/30 11:06:42;;;;;;;7.78;3.90;;;;;;;22.53;62.62;101179.53;716025;1203;113927;-76
2021/05/30 11:22:02;;;;;;;6.40;4.43;;;;;;;22.64;60.19;101191.55;714462;1202;115415;-77
2021/05/30 11:37:23;;;;;;;6.85;3.70;;;;;;;23.59;57.62;101172.38;714240;1202;114087;-78
2021/05/30 11:52:44;;;;;;;4.27;3.20;;;;;;;23.56;52.80;101156.73;714525;1202;114035;-79
2021/05/30 12:08:16;;;;;;;3.30;2.25;;;;;;;21.51;55.99;101180.44;714684;1202;114045;-80
2021/05/30 12:23:37;;;;;;;6.08;3.15;;;;;;;23.42;58.27;101172.74;714468;1202;114312;-78
2021/05/30 12:39:17;;;;;;;5.53;3.40;;;;;;;22.72;57.03;101182.56;714204;1202;114677;-77
2021/05/30 12:54:39;;;;;;;;;;;;;;;22.02;56.83;101177.78;714091;1207;114054;-78
2021/05/30 13:10:06;;;;;;;2.63;2.37;;;;;;;22.11;57.38;101165.95;715668;1203;101207;-79
2021/05/30 13:25:48;;;;;;;4.00;2.80;;;;;;;22.68;57.95;101159.91;717508;1180;113974;-77
2021/05/30 13:41:16;;;;;;;7.25;4.00;;;;;;;21.39;57.36;101172.07;715999;1178;114698;-75
2021/05/30 13:56:36;;;;;;;6.87;4.20;;;;;;;23.01;56.67;101170.00;714167;1202;114561;-78
2021/05/30 14:12:00;;;;;;;5.60;2.90;;;;;;;22.16;55.57;101168.06;713805;1178;114341;-78
2021/05/30 14:27:21;;;;;;;3.00;2.20;;;;;;;22.69;53.05;101166.91;713644;1179;114407;-78
2021/05/30 14:42:41;;;;;;;5.30;2.50;;;;;;;21.17;53.90;101168.48;713781;1202;114490;-79
2021/05/30 14:58:02;;;;;;;4.73;2.43;;;;;;;21.52;52.35;101166.90;714755;1205;115103;-78
2021/05/30 15:13:27;;;;;;;4.35;2.73;;;;;;;21.05;50.45;101171.63;714142;1203;115131;-78
2021/05/30 15:28:48;;;;;;;4.18;2.35;;;;;;;20.49;49.57;101168.45;713286;1202;114355;-78
2021/05/30 15:44:08;;;;;;;21.07;8.73;;;;;;;20.28;49.59;101181.44;713981;1206;114442;-84
2021/05/30 15:59:31;;;;;;;8.38;3.80;;;;;;;20.30;49.92;101181.25;713839;1177;114042;-80
2021/05/30 16:14:52;;;;;;;10.88;4.10;;;;;;;19.83;48.90;101176.89;714032;1205;114578;-81
2021/05/30 16:30:14;;;;;;;12.83;5.35;;;;;;;19.76;49.03;101179.39;713854;1202;117135;-80
2021/05/30 16:45:34;;;;;;;6.47;3.30;;;;;;;19.55;49.70;101180.80;713702;1179;114144;-81
2021/05/30 17:00:56;;;;;;;5.05;3.35;;;;;;;19.07;50.63;101183.45;713814;1203;114001;-79
2021/05/30 17:16:16;;;;;;;7.00;3.48;;;;;;;18.39;52.56;101190.76;713978;1202;115438;-81
2021/05/30 17:31:37;;;;;;;7.40;3.53;;;;;;;17.66;55.04;101180.76;714082;1188;114176;-81
2021/05/30 17:46:57;;;;;;;8.80;3.75;;;;;;;17.28;56.30;101181.09;714049;1202;115370;-81
2021/05/30 18:02:18;;;;;;;9.63;5.57;;;;;;;16.70;57.51;101178.03;713994;1203;115785;-81
2021/05/30 18:17:38;;;;;;;9.20;5.55;;;;;;;16.23;59.05;101175.63;713945;1190;115305;-81
2021/05/30 18:33:00;;;;;;;9.03;4.98;;;;;;;15.69;61.28;101180.81;714149;1202;115322;-81
2021/05/30 18:48:21;;;;;;;9.77;4.27;;;;;;;15.04;64.34;101198.28;714405;1178;114341;-82
2021/05/30 19:03:43;;;;;;;14.83;7.85;;;;;;;14.47;67.27;101195.53;714094;1180;114245;-82
2021/05/30 19:19:04;;;;;;;16.87;8.43;;;;;;;14.01;70.91;101204.91;714096;1206;115285;-82
2021/05/30 19:34:25;;;;;;;24.90;10.83;;;;;;;13.51;73.78;101213.63;713890;1178;114450;-81
2021/05/30 19:49:45;;;;;;;10.55;6.55;;;;;;;13.17;77.03;101224.36;714018;1202;114999;-83
2021/05/30 20:05:07;;;;;;;38.93;16.77;;;;;;;12.86;80.05;101221.66;716058;1203;115451;-82
2021/05/30 20:20:29;;;;;;;31.05;12.30;;;;;;;12.60;82.97;101222.00;714389;1202;114849;-85
2021/05/30 20:35:53;;;;;;;36.97;16.73;;;;;;;12.20;86.10;101238.39;714339;1180;114455;-83
2021/05/30 20:51:18;;;;;;;29.30;13.90;;;;;;;11.93;88.05;101223.80;714361;1202;114988;-83
2021/05/30 21:06:38;;;;;;;54.83;19.23;;;;;;;11.69;89.39;101237.91;714300;1202;114762;-83
2021/05/30 21:21:59;;;;;;;32.58;13.55;;;;;;;11.35;92.16;101251.03;714254;1203;114307;-83
2021/05/30 21:37:20;;;;;;;27.25;12.15;;;;;;;11.13;94.23;101257.89;714411;1183;115472;-85
2021/05/30 21:52:41;;;;;;;16.03;8.15;;;;;;;11.02;94.76;101260.50;714215;1203;115353;-83
2021/05/30 22:08:01;;;;;;;13.17;6.70;;;;;;;10.76;96.68;101249.30;714468;1181;114282;-83
2021/05/30 22:23:22;;;;;;;13.77;7.23;;;;;;;10.62;97.77;101243.28;713275;1202;114623;-82
2021/05/30 22:38:43;;;;;;;9.43;5.55;;;;;;;10.33;97.75;101250.59;714162;1203;115564;-83
2021/05/30 22:54:04;;;;;;;12.18;5.95;;;;;;;10.07;98.46;101248.05;714320;1203;115127;-83
2021/05/30 23:09:25;;;;;;;16.15;7.38;;;;;;;9.85;98.33;101256.58;714109;1183;114467;-83
2021/05/30 23:24:46;;;;;;;13.83;5.97;;;;;;;9.60;100.00;101246.95;714296;1206;114940;-83
2021/05/30 23:40:07;;;;;;;16.05;8.05;;;;;;;9.45;100.00;101239.20;714176;1203;115584;-83
2021/05/30 23:55:27;;;;;;;16.80;5.87;;;;;;;9.55;100.00;101226.30;714034;1202;115478;-83
